sensor_id;sensor_type;location;lat;lon;timestamp;temperature;humidity
54590;DHT22;40485;53.172;5.416;2022-10-31T00:01:16;14.30;99.90
54590;DHT22;40485;53.172;5.416;2022-10-31T00:03:42;14.30;99.90
54590;DHT22;40485;53.172;5.416;2022-10-31T00:06:07;14.40;99.90
54590;DHT22;40485;53.172;5.416;2022-10-31T00:08:33;14.30;99.90
54590;DHT22;40485;53.172;5.416;2022-10-31T00:10:59;14.40;99.90
54590;DHT22;40485;53.172;5.416;2022-10-31T00:13:24;14.30;99.90
54590;DHT22;40485;53.172;5.416;2022-10-31T00:15:50;14.40;99.90
54590;DHT22;40485;53.172;5.416;2022-10-31T00:18:16;14.40;99.90
54590;DHT22;40485;53.172;5.416;2022-10-31T00:20:41;14.30;99.90
54590;DHT22;40485;53.172;5.416;2022-10-31T00:23:07;14.30;99.90
54590;DHT22;40485;53.172;5.416;2022-10-31T00:25:37;14.30;99.90
54590;DHT22;40485;53.172;5.416;2022-10-31T00:28:04;14.20;99.90
54590;DHT22;40485;53.172;5.416;2022-10-31T00:30:31;14.00;99.90
54590;DHT22;40485;53.172;5.416;2022-10-31T00:32:56;13.90;99.90
54590;DHT22;40485;53.172;5.416;2022-10-31T00:35:22;13.90;99.90
54590;DHT22;40485;53.172;5.416;2022-10-31T00:37:48;13.80;99.90
54590;DHT22;40485;53.172;5.416;2022-10-31T00:40:13;13.80;99.90
54590;DHT22;40485;53.172;5.416;2022-10-31T00:42:40;13.70;99.90
54590;DHT22;40485;53.172;5.416;2022-10-31T00:45:08;13.70;99.90
54590;DHT22;40485;53.172;5.416;2022-10-31T00:47:34;13.60;99.90
54590;DHT22;40485;53.172;5.416;2022-10-31T00:50:00;13.60;99.90
54590;DHT22;40485;53.172;5.416;2022-10-31T00:52:25;13.50;99.90
54590;DHT22;40485;53.172;5.416;2022-10-31T00:54:51;13.50;99.90
54590;DHT22;40485;53.172;5.416;2022-10-31T00:57:16;13.40;99.90
54590;DHT22;40485;53.172;5.416;2022-10-31T00:59:42;13.40;99.90
54590;DHT22;40485;53.172;5.416;2022-10-31T01:02:08;13.40;99.90
54590;DHT22;40485;53.172;5.416;2022-10-31T01:04:33;13.40;99.90
54590;DHT22;40485;53.172;5.416;2022-10-31T01:06:59;13.40;99.90
54590;DHT22;40485;53.172;5.416;2022-10-31T01:09:24;13.30;99.90
54590;DHT22;40485;53.172;5.416;2022-10-31T01:11:50;13.30;99.90
54590;DHT22;40485;53.172;5.416;2022-10-31T01:14:15;13.20;99.90
54590;DHT22;40485;53.172;5.416;2022-10-31T01:16:41;13.30;99.90
54590;DHT22;40485;53.172;5.416;2022-10-31T01:19:07;13.20;99.90
54590;DHT22;40485;53.172;5.416;2022-10-31T01:21:32;13.20;99.90
54590;DHT22;40485;53.172;5.416;2022-10-31T01:23:58;13.20;99.90
54590;DHT22;40485;53.172;5.416;2022-10-31T01:26:31;13.20;99.90
54590;DHT22;40485;53.172;5.416;2022-10-31T01:29:00;13.20;99.90
54590;DHT22;40485;53.172;5.416;2022-10-31T01:31:31;13.20;99.90
54590;DHT22;40485;53.172;5.416;2022-10-31T01:33:58;13.20;99.90
54590;DHT22;40485;53.172;5.416;2022-10-31T01:38:56;13.10;99.90
54590;DHT22;40485;53.172;5.416;2022-10-31T01:41:25;13.10;99.90
54590;DHT22;40485;53.172;5.416;2022-10-31T01:47:05;13.00;99.90
54590;DHT22;40485;53.172;5.416;2022-10-31T01:49:47;13.10;99.90
54590;DHT22;40485;53.172;5.416;2022-10-31T01:52:19;13.10;99.90
54590;DHT22;40485;53.172;5.416;2022-10-31T01:55:01;13.10;99.90
54590;DHT22;40485;53.172;5.416;2022-10-31T01:57:29;13.10;99.90
54590;DHT22;40485;53.172;5.416;2022-10-31T01:59:59;13.00;99.90
54590;DHT22;40485;53.172;5.416;2022-10-31T02:02:27;13.00;99.90
54590;DHT22;40485;53.172;5.416;2022-10-31T02:04:55;13.00;99.90
54590;DHT22;40485;53.172;5.416;2022-10-31T02:07:26;13.00;99.90
54590;DHT22;40485;53.172;5.416;2022-10-31T02:09:53;12.90;99.90
54590;DHT22;40485;53.172;5.416;2022-10-31T02:12:20;12.90;99.90
54590;DHT22;40485;53.172;5.416;2022-10-31T02:14:46;12.90;99.90
54590;DHT22;40485;53.172;5.416;2022-10-31T02:17:12;12.90;99.90
54590;DHT22;40485;53.172;5.416;2022-10-31T02:19:52;12.90;99.90
54590;DHT22;40485;53.172;5.416;2022-10-31T02:22:35;12.80;99.90
54590;DHT22;40485;53.172;5.416;2022-10-31T02:33:25;12.70;99.90
54590;DHT22;40485;53.172;5.416;2022-10-31T02:36:10;12.70;99.90
54590;DHT22;40485;53.172;5.416;2022-10-31T02:38:46;12.70;99.90
54590;DHT22;40485;53.172;5.416;2022-10-31T02:46:34;12.70;99.90
54590;DHT22;40485;53.172;5.416;2022-10-31T02:49:12;12.70;99.90
54590;DHT22;40485;53.172;5.416;2022-10-31T02:51:43;12.70;99.90
54590;DHT22;40485;53.172;5.416;2022-10-31T02:54:38;12.70;99.90
54590;DHT22;40485;53.172;5.416;2022-10-31T02:57:06;12.70;99.90
54590;DHT22;40485;53.172;5.416;2022-10-31T02:59:34;12.70;99.90
54590;DHT22;40485;53.172;5.416;2022-10-31T03:04:55;12.70;99.90
54590;DHT22;40485;53.172;5.416;2022-10-31T03:10:20;12.70;99.90
54590;DHT22;40485;53.172;5.416;2022-10-31T03:15:32;12.60;99.90
54590;DHT22;40485;53.172;5.416;2022-10-31T03:18:12;12.60;99.90
54590;DHT22;40485;53.172;5.416;2022-10-31T03:20:49;12.60;99.90
54590;DHT22;40485;53.172;5.416;2022-10-31T03:23:18;12.60;99.90
54590;DHT22;40485;53.172;5.416;2022-10-31T03:25:45;12.60;99.90
54590;DHT22;40485;53.172;5.416;2022-10-31T03:28:14;12.60;99.90
54590;DHT22;40485;53.172;5.416;2022-10-31T03:30:42;12.50;99.90
54590;DHT22;40485;53.172;5.416;2022-10-31T03:33:13;12.50;99.90
54590;DHT22;40485;53.172;5.416;2022-10-31T03:35:42;12.50;99.90
54590;DHT22;40485;53.172;5.416;2022-10-31T03:38:10;12.50;99.90
54590;DHT22;40485;53.172;5.416;2022-10-31T03:40:38;12.40;99.90
54590;DHT22;40485;53.172;5.416;2022-10-31T03:43:09;12.40;99.90
54590;DHT22;40485;53.172;5.416;2022-10-31T03:45:41;12.30;99.90
54590;DHT22;40485;53.172;5.416;2022-10-31T03:48:08;12.40;99.90
54590;DHT22;40485;53.172;5.416;2022-10-31T03:50:41;12.40;99.90
54590;DHT22;40485;53.172;5.416;2022-10-31T03:54:01;12.40;99.90
54590;DHT22;40485;53.172;5.416;2022-10-31T03:56:19;12.40;99.90
54590;DHT22;40485;53.172;5.416;2022-10-31T03:59:08;12.40;99.90
54590;DHT22;40485;53.172;5.416;2022-10-31T04:01:41;12.40;99.90
54590;DHT22;40485;53.172;5.416;2022-10-31T04:04:09;12.30;99.90
54590;DHT22;40485;53.172;5.416;2022-10-31T04:06:37;12.30;99.90
54590;DHT22;40485;53.172;5.416;2022-10-31T04:09:05;12.30;99.90
54590;DHT22;40485;53.172;5.416;2022-10-31T04:11:38;12.30;99.90
54590;DHT22;40485;53.172;5.416;2022-10-31T04:14:06;12.30;99.90
54590;DHT22;40485;53.172;5.416;2022-10-31T04:16:32;12.20;99.90
54590;DHT22;40485;53.172;5.416;2022-10-31T04:18:58;12.30;99.90
54590;DHT22;40485;53.172;5.416;2022-10-31T04:21:27;12.30;99.90
54590;DHT22;40485;53.172;5.416;2022-10-31T04:23:54;12.40;99.90
54590;DHT22;40485;53.172;5.416;2022-10-31T04:26:20;12.20;99.90
54590;DHT22;40485;53.172;5.416;2022-10-31T04:28:46;12.20;99.90
54590;DHT22;40485;53.172;5.416;2022-10-31T04:31:12;12.20;99.90
54590;DHT22;40485;53.172;5.416;2022-10-31T04:33:38;12.20;99.90
54590;DHT22;40485;53.172;5.416;2022-10-31T04:36:04;12.20;99.90
54590;DHT22;40485;53.172;5.416;2022-10-31T04:38:30;12.20;99.90
54590;DHT22;40485;53.172;5.416;2022-10-31T04:40:55;12.20;99.90
54590;DHT22;40485;53.172;5.416;2022-10-31T04:43:21;12.20;99.90
54590;DHT22;40485;53.172;5.416;2022-10-31T04:45:47;12.20;99.90
54590;DHT22;40485;53.172;5.416;2022-10-31T04:48:13;12.20;99.90
54590;DHT22;40485;53.172;5.416;2022-10-31T04:50:39;12.10;99.90
54590;DHT22;40485;53.172;5.416;2022-10-31T04:53:05;12.10;99.90
54590;DHT22;40485;53.172;5.416;2022-10-31T04:55:30;12.10;99.90
54590;DHT22;40485;53.172;5.416;2022-10-31T04:57:56;12.00;99.90
54590;DHT22;40485;53.172;5.416;2022-10-31T05:00:22;12.10;99.90
54590;DHT22;40485;53.172;5.416;2022-10-31T05:02:49;12.00;99.90
54590;DHT22;40485;53.172;5.416;2022-10-31T05:05:17;12.00;99.90
54590;DHT22;40485;53.172;5.416;2022-10-31T05:07:44;12.10;99.90
54590;DHT22;40485;53.172;5.416;2022-10-31T05:10:12;12.00;99.90
54590;DHT22;40485;53.172;5.416;2022-10-31T05:12:48;11.90;99.90
54590;DHT22;40485;53.172;5.416;2022-10-31T05:15:15;11.90;99.90
54590;DHT22;40485;53.172;5.416;2022-10-31T05:17:42;11.80;99.90
54590;DHT22;40485;53.172;5.416;2022-10-31T05:20:08;11.80;99.90
54590;DHT22;40485;53.172;5.416;2022-10-31T05:22:34;11.70;99.90
54590;DHT22;40485;53.172;5.416;2022-10-31T05:24:59;11.70;99.90
54590;DHT22;40485;53.172;5.416;2022-10-31T05:27:25;11.70;99.90
54590;DHT22;40485;53.172;5.416;2022-10-31T05:29:50;11.70;99.90
54590;DHT22;40485;53.172;5.416;2022-10-31T05:32:16;11.70;99.90
54590;DHT22;40485;53.172;5.416;2022-10-31T05:34:42;11.60;99.90
54590;DHT22;40485;53.172;5.416;2022-10-31T05:37:08;11.60;99.90
54590;DHT22;40485;53.172;5.416;2022-10-31T05:39:33;11.50;99.90
54590;DHT22;40485;53.172;5.416;2022-10-31T05:41:59;11.40;99.90
54590;DHT22;40485;53.172;5.416;2022-10-31T05:44:25;11.50;99.90
54590;DHT22;40485;53.172;5.416;2022-10-31T05:46:50;11.40;99.90
54590;DHT22;40485;53.172;5.416;2022-10-31T05:49:16;11.50;99.90
54590;DHT22;40485;53.172;5.416;2022-10-31T05:51:43;11.50;99.90
54590;DHT22;40485;53.172;5.416;2022-10-31T05:54:08;11.40;99.90
54590;DHT22;40485;53.172;5.416;2022-10-31T05:56:34;11.40;99.90
54590;DHT22;40485;53.172;5.416;2022-10-31T05:58:59;11.40;99.90
54590;DHT22;40485;53.172;5.416;2022-10-31T06:01:25;11.50;99.90
54590;DHT22;40485;53.172;5.416;2022-10-31T06:03:50;11.40;99.90
54590;DHT22;40485;53.172;5.416;2022-10-31T06:06:16;11.40;99.90
54590;DHT22;40485;53.172;5.416;2022-10-31T06:08:42;11.40;99.90
54590;DHT22;40485;53.172;5.416;2022-10-31T06:11:07;11.30;99.90
54590;DHT22;40485;53.172;5.416;2022-10-31T06:13:33;11.40;99.90
54590;DHT22;40485;53.172;5.416;2022-10-31T06:15:58;11.40;99.90
54590;DHT22;40485;53.172;5.416;2022-10-31T06:18:24;11.40;99.90
54590;DHT22;40485;53.172;5.416;2022-10-31T06:20:50;11.30;99.90
54590;DHT22;40485;53.172;5.416;2022-10-31T06:23:15;11.40;99.90
54590;DHT22;40485;53.172;5.416;2022-10-31T06:25:41;11.40;99.90
54590;DHT22;40485;53.172;5.416;2022-10-31T06:28:07;11.40;99.90
54590;DHT22;40485;53.172;5.416;2022-10-31T06:30:32;11.40;99.90
54590;DHT22;40485;53.172;5.416;2022-10-31T06:33:05;11.50;99.90
54590;DHT22;40485;53.172;5.416;2022-10-31T06:35:31;11.50;99.90
54590;DHT22;40485;53.172;5.416;2022-10-31T06:37:57;11.50;99.90
54590;DHT22;40485;53.172;5.416;2022-10-31T06:40:22;11.50;99.90
54590;DHT22;40485;53.172;5.416;2022-10-31T06:42:56;11.70;99.90
54590;DHT22;40485;53.172;5.416;2022-10-31T06:45:22;11.60;99.90
54590;DHT22;40485;53.172;5.416;2022-10-31T06:47:52;11.60;99.90
54590;DHT22;40485;53.172;5.416;2022-10-31T06:50:18;11.60;99.90
54590;DHT22;40485;53.172;5.416;2022-10-31T06:52:53;11.70;99.90
54590;DHT22;40485;53.172;5.416;2022-10-31T06:55:19;11.70;99.90
54590;DHT22;40485;53.172;5.416;2022-10-31T06:57:59;11.70;99.90
54590;DHT22;40485;53.172;5.416;2022-10-31T07:00:26;11.70;99.90
54590;DHT22;40485;53.172;5.416;2022-10-31T07:03:06;11.70;99.90
54590;DHT22;40485;53.172;5.416;2022-10-31T07:05:32;11.70;99.90
54590;DHT22;40485;53.172;5.416;2022-10-31T07:08:00;11.70;99.90
54590;DHT22;40485;53.172;5.416;2022-10-31T07:10:28;11.70;99.90
54590;DHT22;40485;53.172;5.416;2022-10-31T07:13:03;11.80;99.90
54590;DHT22;40485;53.172;5.416;2022-10-31T07:15:32;11.80;99.90
54590;DHT22;40485;53.172;5.416;2022-10-31T07:18:02;11.90;99.90
54590;DHT22;40485;53.172;5.416;2022-10-31T07:20:29;11.90;99.90
54590;DHT22;40485;53.172;5.416;2022-10-31T07:22:54;12.10;99.90
54590;DHT22;40485;53.172;5.416;2022-10-31T07:25:20;12.00;99.90
54590;DHT22;40485;53.172;5.416;2022-10-31T07:27:46;12.00;99.90
54590;DHT22;40485;53.172;5.416;2022-10-31T07:30:13;12.00;99.90
54590;DHT22;40485;53.172;5.416;2022-10-31T07:32:40;12.10;99.90
54590;DHT22;40485;53.172;5.416;2022-10-31T07:35:07;12.10;99.90
54590;DHT22;40485;53.172;5.416;2022-10-31T07:37:33;12.10;99.90
54590;DHT22;40485;53.172;5.416;2022-10-31T07:39:59;12.10;99.90
54590;DHT22;40485;53.172;5.416;2022-10-31T07:42:25;12.20;99.90
54590;DHT22;40485;53.172;5.416;2022-10-31T07:44:50;12.30;99.90
54590;DHT22;40485;53.172;5.416;2022-10-31T07:47:16;12.40;99.90
54590;DHT22;40485;53.172;5.416;2022-10-31T07:49:41;12.40;99.90
54590;DHT22;40485;53.172;5.416;2022-10-31T07:52:07;12.40;99.90
54590;DHT22;40485;53.172;5.416;2022-10-31T07:54:32;12.60;99.90
54590;DHT22;40485;53.172;5.416;2022-10-31T07:56:58;12.70;99.90
54590;DHT22;40485;53.172;5.416;2022-10-31T07:59:23;12.80;99.90
54590;DHT22;40485;53.172;5.416;2022-10-31T08:01:51;12.90;99.90
54590;DHT22;40485;53.172;5.416;2022-10-31T08:04:16;13.00;99.90
54590;DHT22;40485;53.172;5.416;2022-10-31T08:06:42;13.30;99.90
54590;DHT22;40485;53.172;5.416;2022-10-31T08:09:07;13.50;99.90
54590;DHT22;40485;53.172;5.416;2022-10-31T08:11:33;13.70;99.90
54590;DHT22;40485;53.172;5.416;2022-10-31T08:13:58;13.90;99.90
54590;DHT22;40485;53.172;5.416;2022-10-31T08:16:24;14.00;99.90
54590;DHT22;40485;53.172;5.416;2022-10-31T08:18:50;14.20;99.90
54590;DHT22;40485;53.172;5.416;2022-10-31T08:21:15;14.40;99.90
54590;DHT22;40485;53.172;5.416;2022-10-31T08:23:41;14.60;99.90
54590;DHT22;40485;53.172;5.416;2022-10-31T08:26:06;14.70;99.90
54590;DHT22;40485;53.172;5.416;2022-10-31T08:28:32;14.90;99.90
54590;DHT22;40485;53.172;5.416;2022-10-31T08:30:58;14.90;99.90
54590;DHT22;40485;53.172;5.416;2022-10-31T08:33:24;15.00;99.90
54590;DHT22;40485;53.172;5.416;2022-10-31T08:35:49;15.10;99.90
54590;DHT22;40485;53.172;5.416;2022-10-31T08:38:15;15.30;99.90
54590;DHT22;40485;53.172;5.416;2022-10-31T08:40:41;15.40;99.90
54590;DHT22;40485;53.172;5.416;2022-10-31T08:43:15;15.60;99.90
54590;DHT22;40485;53.172;5.416;2022-10-31T08:45:41;15.60;99.90
54590;DHT22;40485;53.172;5.416;2022-10-31T08:48:11;15.70;99.90
54590;DHT22;40485;53.172;5.416;2022-10-31T08:50:37;15.80;99.90
54590;DHT22;40485;53.172;5.416;2022-10-31T08:53:09;15.80;99.90
54590;DHT22;40485;53.172;5.416;2022-10-31T08:55:36;16.00;99.90
54590;DHT22;40485;53.172;5.416;2022-10-31T08:58:03;16.20;99.90
54590;DHT22;40485;53.172;5.416;2022-10-31T09:00:29;16.30;99.90
54590;DHT22;40485;53.172;5.416;2022-10-31T09:03:00;16.30;99.90
54590;DHT22;40485;53.172;5.416;2022-10-31T09:05:26;16.40;99.90
54590;DHT22;40485;53.172;5.416;2022-10-31T09:07:55;16.40;99.90
54590;DHT22;40485;53.172;5.416;2022-10-31T09:10:20;16.60;99.90
54590;DHT22;40485;53.172;5.416;2022-10-31T09:12:46;16.70;99.90
54590;DHT22;40485;53.172;5.416;2022-10-31T09:15:11;16.70;99.90
54590;DHT22;40485;53.172;5.416;2022-10-31T09:17:37;16.90;99.90
54590;DHT22;40485;53.172;5.416;2022-10-31T09:20:03;17.00;99.90
54590;DHT22;40485;53.172;5.416;2022-10-31T09:22:28;17.10;99.90
54590;DHT22;40485;53.172;5.416;2022-10-31T09:24:54;17.20;99.90
54590;DHT22;40485;53.172;5.416;2022-10-31T09:27:19;17.30;99.90
54590;DHT22;40485;53.172;5.416;2022-10-31T09:29:45;17.30;99.90
54590;DHT22;40485;53.172;5.416;2022-10-31T09:32:10;17.40;99.90
54590;DHT22;40485;53.172;5.416;2022-10-31T09:34:36;17.30;99.90
54590;DHT22;40485;53.172;5.416;2022-10-31T09:37:02;17.40;99.90
54590;DHT22;40485;53.172;5.416;2022-10-31T09:39:27;17.50;99.90
54590;DHT22;40485;53.172;5.416;2022-10-31T09:44:51;17.70;99.90
54590;DHT22;40485;53.172;5.416;2022-10-31T09:49:59;17.80;99.90
54590;DHT22;40485;53.172;5.416;2022-10-31T09:52:33;17.90;99.90
54590;DHT22;40485;53.172;5.416;2022-10-31T09:55:15;18.00;99.90
54590;DHT22;40485;53.172;5.416;2022-10-31T09:57:42;18.10;99.90
54590;DHT22;40485;53.172;5.416;2022-10-31T10:00:17;18.20;99.90
54590;DHT22;40485;53.172;5.416;2022-10-31T10:02:56;18.40;99.90
54590;DHT22;40485;53.172;5.416;2022-10-31T10:05:29;18.50;99.90
54590;DHT22;40485;53.172;5.416;2022-10-31T10:08:12;18.60;99.90
54590;DHT22;40485;53.172;5.416;2022-10-31T10:16:16;18.70;99.90
54590;DHT22;40485;53.172;5.416;2022-10-31T10:18:52;18.60;99.90
54590;DHT22;40485;53.172;5.416;2022-10-31T10:24:27;18.50;99.90
54590;DHT22;40485;53.172;5.416;2022-10-31T10:27:03;18.70;99.90
54590;DHT22;40485;53.172;5.416;2022-10-31T10:29:39;18.90;99.90
54590;DHT22;40485;53.172;5.416;2022-10-31T10:32:14;19.00;99.90
54590;DHT22;40485;53.172;5.416;2022-10-31T10:34:48;19.10;99.90
54590;DHT22;40485;53.172;5.416;2022-10-31T10:37:26;19.10;99.90
54590;DHT22;40485;53.172;5.416;2022-10-31T10:39:56;19.30;99.90
54590;DHT22;40485;53.172;5.416;2022-10-31T10:42:26;19.40;99.90
54590;DHT22;40485;53.172;5.416;2022-10-31T10:45:16;19.50;99.90
54590;DHT22;40485;53.172;5.416;2022-10-31T10:50:54;19.70;99.90
54590;DHT22;40485;53.172;5.416;2022-10-31T10:56:31;19.80;99.00
54590;DHT22;40485;53.172;5.416;2022-10-31T10:58:54;19.80;99.00
54590;DHT22;40485;53.172;5.416;2022-10-31T11:01:22;19.90;99.10
54590;DHT22;40485;53.172;5.416;2022-10-31T11:03:47;20.00;98.80
54590;DHT22;40485;53.172;5.416;2022-10-31T11:06:22;20.00;98.40
54590;DHT22;40485;53.172;5.416;2022-10-31T11:08:51;19.90;98.00
54590;DHT22;40485;53.172;5.416;2022-10-31T11:13:45;19.40;98.70
54590;DHT22;40485;53.172;5.416;2022-10-31T11:16:14;19.40;98.80
54590;DHT22;40485;53.172;5.416;2022-10-31T11:18:46;19.20;98.50
54590;DHT22;40485;53.172;5.416;2022-10-31T11:21:29;19.20;98.90
54590;DHT22;40485;53.172;5.416;2022-10-31T11:26:42;19.10;98.90
54590;DHT22;40485;53.172;5.416;2022-10-31T11:29:14;19.00;98.70
54590;DHT22;40485;53.172;5.416;2022-10-31T11:31:41;18.80;98.40
54590;DHT22;40485;53.172;5.416;2022-10-31T11:34:33;18.70;98.70
54590;DHT22;40485;53.172;5.416;2022-10-31T11:37:13;18.70;99.30
54590;DHT22;40485;53.172;5.416;2022-10-31T11:39:43;18.70;99.50
54590;DHT22;40485;53.172;5.416;2022-10-31T11:42:10;18.70;99.70
54590;DHT22;40485;53.172;5.416;2022-10-31T11:44:35;18.80;99.90
54590;DHT22;40485;53.172;5.416;2022-10-31T11:47:03;19.10;99.90
54590;DHT22;40485;53.172;5.416;2022-10-31T11:49:40;19.40;99.90
54590;DHT22;40485;53.172;5.416;2022-10-31T11:54:59;19.80;98.60
54590;DHT22;40485;53.172;5.416;2022-10-31T11:57:31;19.90;97.70
54590;DHT22;40485;53.172;5.416;2022-10-31T12:00:01;20.00;98.00
54590;DHT22;40485;53.172;5.416;2022-10-31T12:02:28;19.90;97.00
54590;DHT22;40485;53.172;5.416;2022-10-31T12:05:02;19.90;97.20
54590;DHT22;40485;53.172;5.416;2022-10-31T12:07:30;19.80;96.90
54590;DHT22;40485;53.172;5.416;2022-10-31T12:09:55;19.70;96.70
54590;DHT22;40485;53.172;5.416;2022-10-31T12:12:34;19.60;97.00
54590;DHT22;40485;53.172;5.416;2022-10-31T12:26:00;20.30;96.50
54590;DHT22;40485;53.172;5.416;2022-10-31T12:31:44;20.70;96.80
54590;DHT22;40485;53.172;5.416;2022-10-31T12:58:39;20.50;94.60
54590;DHT22;40485;53.172;5.416;2022-10-31T13:04:02;20.60;95.50
54590;DHT22;40485;53.172;5.416;2022-10-31T13:06:56;20.80;95.70
54590;DHT22;40485;53.172;5.416;2022-10-31T13:12:07;20.50;95.00
54590;DHT22;40485;53.172;5.416;2022-10-31T13:14:38;20.40;95.30
54590;DHT22;40485;53.172;5.416;2022-10-31T13:17:04;20.40;95.60
54590;DHT22;40485;53.172;5.416;2022-10-31T13:19:41;20.50;95.70
54590;DHT22;40485;53.172;5.416;2022-10-31T13:22:13;20.70;95.70
54590;DHT22;40485;53.172;5.416;2022-10-31T13:27:30;20.90;94.90
54590;DHT22;40485;53.172;5.416;2022-10-31T13:30:03;21.00;94.90
54590;DHT22;40485;53.172;5.416;2022-10-31T13:32:42;21.10;95.20
54590;DHT22;40485;53.172;5.416;2022-10-31T13:38:23;21.40;95.00
54590;DHT22;40485;53.172;5.416;2022-10-31T13:41:11;21.40;93.50
54590;DHT22;40485;53.172;5.416;2022-10-31T13:44:03;21.40;94.30
54590;DHT22;40485;53.172;5.416;2022-10-31T13:46:35;21.60;94.20
54590;DHT22;40485;53.172;5.416;2022-10-31T13:49:01;21.50;92.90
54590;DHT22;40485;53.172;5.416;2022-10-31T13:51:32;21.40;92.60
54590;DHT22;40485;53.172;5.416;2022-10-31T13:54:19;21.30;92.80
54590;DHT22;40485;53.172;5.416;2022-10-31T13:56:50;21.20;93.00
54590;DHT22;40485;53.172;5.416;2022-10-31T13:59:25;21.20;92.90
54590;DHT22;40485;53.172;5.416;2022-10-31T14:01:58;21.10;92.60
54590;DHT22;40485;53.172;5.416;2022-10-31T14:04:44;21.00;93.10
54590;DHT22;40485;53.172;5.416;2022-10-31T14:07:15;20.70;92.70
54590;DHT22;40485;53.172;5.416;2022-10-31T14:14:58;19.80;93.80
54590;DHT22;40485;53.172;5.416;2022-10-31T14:17:27;19.50;94.30
54590;DHT22;40485;53.172;5.416;2022-10-31T14:20:24;19.40;94.70
54590;DHT22;40485;53.172;5.416;2022-10-31T14:22:50;19.20;95.40
54590;DHT22;40485;53.172;5.416;2022-10-31T14:25:34;19.10;95.60
54590;DHT22;40485;53.172;5.416;2022-10-31T14:28:03;19.00;95.90
54590;DHT22;40485;53.172;5.416;2022-10-31T14:30:57;18.90;96.10
54590;DHT22;40485;53.172;5.416;2022-10-31T14:33:26;18.80;96.50
54590;DHT22;40485;53.172;5.416;2022-10-31T14:36:02;18.70;96.50
54590;DHT22;40485;53.172;5.416;2022-10-31T14:52:14;18.10;97.50
54590;DHT22;40485;53.172;5.416;2022-10-31T14:54:48;18.10;97.60
54590;DHT22;40485;53.172;5.416;2022-10-31T14:57:35;18.00;97.80
54590;DHT22;40485;53.172;5.416;2022-10-31T15:00:07;17.90;98.00
54590;DHT22;40485;53.172;5.416;2022-10-31T15:05:17;17.90;98.40
54590;DHT22;40485;53.172;5.416;2022-10-31T15:07:54;17.80;98.60
54590;DHT22;40485;53.172;5.416;2022-10-31T15:10:31;17.70;98.70
54590;DHT22;40485;53.172;5.416;2022-10-31T15:13:20;17.60;99.00
54590;DHT22;40485;53.172;5.416;2022-10-31T15:15:48;17.50;99.20
54590;DHT22;40485;53.172;5.416;2022-10-31T15:18:17;17.50;99.40
54590;DHT22;40485;53.172;5.416;2022-10-31T15:20:46;17.40;99.50
54590;DHT22;40485;53.172;5.416;2022-10-31T15:23:17;17.30;99.70
54590;DHT22;40485;53.172;5.416;2022-10-31T15:25:46;17.20;99.90
54590;DHT22;40485;53.172;5.416;2022-10-31T15:28:21;17.20;99.90
54590;DHT22;40485;53.172;5.416;2022-10-31T15:30:55;17.20;99.90
54590;DHT22;40485;53.172;5.416;2022-10-31T15:33:30;17.10;99.90
54590;DHT22;40485;53.172;5.416;2022-10-31T15:35:58;17.10;99.90
54590;DHT22;40485;53.172;5.416;2022-10-31T15:38:24;17.00;99.90
54590;DHT22;40485;53.172;5.416;2022-10-31T15:43:21;16.90;99.90
54590;DHT22;40485;53.172;5.416;2022-10-31T15:45:47;16.80;99.90
54590;DHT22;40485;53.172;5.416;2022-10-31T15:48:16;16.80;99.90
54590;DHT22;40485;53.172;5.416;2022-10-31T15:50:52;16.80;99.90
54590;DHT22;40485;53.172;5.416;2022-10-31T15:53:35;16.80;99.90
54590;DHT22;40485;53.172;5.416;2022-10-31T15:56:05;16.70;99.90
54590;DHT22;40485;53.172;5.416;2022-10-31T15:58:33;16.70;99.90
54590;DHT22;40485;53.172;5.416;2022-10-31T16:01:18;16.60;99.90
54590;DHT22;40485;53.172;5.416;2022-10-31T16:03:44;16.60;99.90
54590;DHT22;40485;53.172;5.416;2022-10-31T16:06:21;16.50;99.90
54590;DHT22;40485;53.172;5.416;2022-10-31T16:08:49;16.50;99.90
54590;DHT22;40485;53.172;5.416;2022-10-31T16:11:38;16.50;99.90
54590;DHT22;40485;53.172;5.416;2022-10-31T16:16:42;16.30;99.90
54590;DHT22;40485;53.172;5.416;2022-10-31T16:19:27;16.30;99.90
54590;DHT22;40485;53.172;5.416;2022-10-31T16:22:04;16.20;99.90
54590;DHT22;40485;53.172;5.416;2022-10-31T16:24:37;16.20;99.90
54590;DHT22;40485;53.172;5.416;2022-10-31T16:27:07;16.10;99.90
54590;DHT22;40485;53.172;5.416;2022-10-31T16:29:44;16.10;99.90
54590;DHT22;40485;53.172;5.416;2022-10-31T16:35:00;15.90;99.90
54590;DHT22;40485;53.172;5.416;2022-10-31T16:37:28;16.00;99.90
54590;DHT22;40485;53.172;5.416;2022-10-31T16:39:54;15.90;99.90
54590;DHT22;40485;53.172;5.416;2022-10-31T16:42:19;15.90;99.90
54590;DHT22;40485;53.172;5.416;2022-10-31T16:44:46;15.90;99.90
54590;DHT22;40485;53.172;5.416;2022-10-31T16:47:14;15.90;99.90
54590;DHT22;40485;53.172;5.416;2022-10-31T16:49:41;15.80;99.90
54590;DHT22;40485;53.172;5.416;2022-10-31T16:52:07;15.80;99.90
54590;DHT22;40485;53.172;5.416;2022-10-31T16:54:32;15.80;99.90
54590;DHT22;40485;53.172;5.416;2022-10-31T16:56:59;15.70;99.90
54590;DHT22;40485;53.172;5.416;2022-10-31T16:59:26;15.80;99.90
54590;DHT22;40485;53.172;5.416;2022-10-31T17:01:55;15.70;99.90
54590;DHT22;40485;53.172;5.416;2022-10-31T17:04:21;15.70;99.90
54590;DHT22;40485;53.172;5.416;2022-10-31T17:06:47;15.70;99.90
54590;DHT22;40485;53.172;5.416;2022-10-31T17:09:13;15.60;99.90
54590;DHT22;40485;53.172;5.416;2022-10-31T17:11:45;15.70;99.90
54590;DHT22;40485;53.172;5.416;2022-10-31T17:14:11;15.70;99.90
54590;DHT22;40485;53.172;5.416;2022-10-31T17:16:37;15.70;99.90
54590;DHT22;40485;53.172;5.416;2022-10-31T17:19:03;15.70;99.90
54590;DHT22;40485;53.172;5.416;2022-10-31T17:21:29;15.70;99.90
54590;DHT22;40485;53.172;5.416;2022-10-31T17:23:55;15.60;99.90
54590;DHT22;40485;53.172;5.416;2022-10-31T17:26:20;15.60;99.90
54590;DHT22;40485;53.172;5.416;2022-10-31T17:28:46;15.60;99.90
54590;DHT22;40485;53.172;5.416;2022-10-31T17:31:28;15.50;99.90
54590;DHT22;40485;53.172;5.416;2022-10-31T17:33:54;15.50;99.90
54590;DHT22;40485;53.172;5.416;2022-10-31T17:36:20;15.50;99.90
54590;DHT22;40485;53.172;5.416;2022-10-31T17:38:46;15.40;99.90
54590;DHT22;40485;53.172;5.416;2022-10-31T17:41:12;15.40;99.90
54590;DHT22;40485;53.172;5.416;2022-10-31T17:43:37;15.40;99.90
54590;DHT22;40485;53.172;5.416;2022-10-31T17:46:03;15.40;99.90
54590;DHT22;40485;53.172;5.416;2022-10-31T17:48:29;15.40;99.90
54590;DHT22;40485;53.172;5.416;2022-10-31T17:50:59;15.40;99.90
54590;DHT22;40485;53.172;5.416;2022-10-31T17:53:28;15.40;99.90
54590;DHT22;40485;53.172;5.416;2022-10-31T17:55:53;15.30;99.90
54590;DHT22;40485;53.172;5.416;2022-10-31T17:58:23;15.30;99.90
54590;DHT22;40485;53.172;5.416;2022-10-31T18:00:49;15.30;99.90